Time;durP1;ratioP1;P1;durP2;ratioP2;P2;SDS_P1;SDS_P2;PMS_P1;PMS_P2;Temp;Humidity;BMP_temperature;BMP_pressure;BME280_temperature;BME280_humidity;BME280_pressure;Samples;Min_cycle;Max_cycle;Signal;HPM_P1;HPM_P2
2020/04/07 00:00:05;;;;;;;9.699999;8;;;;;;;6.92;57.67676;96109.64;;;;
2020/04/07 00:01:12;;;;;;;9.699999;8;;;;;;;6.92;57.67676;96109.64;;;;
2020/04/07 00:02:21;;;;;;;9.699999;8;;;;;;;6.92;57.67676;96109.64;;;;
2020/04/07 00:03:26;;;;;;;9.699999;8;;;;;;;6.92;57.67676;96109.64;;;;
2020/04/07 00:04:28;;;;;;;9.699999;8;;;;;;;6.92;57.67676;96109.64;;;;
2020/04/07 00:05:36;;;;;;;10.75;7.900001;;;;;;;6.44;56.41016;96115.66;;;;
2020/04/07 00:06:37;;;;;;;10.75;7.900001;;;;;;;6.44;56.41016;96115.66;;;;
2020/04/07 00:07:44;;;;;;;9.65;7.550001;;;;;;;6.4;57.04395;96112.64;;;;
2020/04/07 00:08:44;;;;;;;9.65;7.550001;;;;;;;6.4;57.04395;96112.64;;;;
2020/04/07 00:09:45;;;;;;;9.65;7.550001;;;;;;;6.4;57.04395;96112.64;;;;
2020/04/07 00:10:49;;;;;;;11.5;8.199999;;;;;;;6.43;57.53613;96108.73;;;;
2020/04/07 00:11:49;;;;;;;11.5;8.199999;;;;;;;6.43;57.53613;96108.73;;;;
2020/04/07 00:12:50;;;;;;;10.85;8.349999;;;;;;;6.43;57.9209;96107.31;;;;
2020/04/07 00:13:50;;;;;;;10.85;8.349999;;;;;;;6.43;57.9209;96107.31;;;;
2020/04/07 00:14:51;;;;;;;10.85;8.349999;;;;;;;6.43;57.9209;96107.31;;;;
2020/04/07 00:15:51;;;;;;;9.1;7.699999;;;;;;;6.46;58.24414;96117.76;;;;
2020/04/07 00:16:52;;;;;;;9.1;7.699999;;;;;;;6.46;58.24414;96117.76;;;;
2020/04/07 00:17:54;;;;;;;14.35;8.049999;;;;;;;6.45;58.53027;96116;;;;
2020/04/07 00:18:56;;;;;;;14.35;8.049999;;;;;;;6.45;58.53027;96116;;;;
2020/04/07 00:19:57;;;;;;;14.35;8.049999;;;;;;;6.45;58.53027;96116;;;;
2020/04/07 00:20:57;;;;;;;14.35;8.049999;;;;;;;6.45;58.53027;96116;;;;
2020/04/07 00:21:59;;;;;;;14.35;8.049999;;;;;;;6.45;58.53027;96116;;;;
2020/04/07 00:23:03;;;;;;;14.35;8.049999;;;;;;;6.45;58.53027;96116;;;;
2020/04/07 00:24:05;;;;;;;14.35;8.049999;;;;;;;6.45;58.53027;96116;;;;
2020/04/07 00:25:05;;;;;;;14.35;8.049999;;;;;;;6.45;58.53027;96116;;;;
2020/04/07 00:26:06;;;;;;;14.35;8.049999;;;;;;;6.45;58.53027;96116;;;;
2020/04/07 00:27:06;;;;;;;14.35;8.049999;;;;;;;6.45;58.53027;96116;;;;
2020/04/07 00:28:10;;;;;;;14.35;8.049999;;;;;;;6.45;58.53027;96116;;;;
2020/04/07 00:29:10;;;;;;;10.15;7.65;;;;;;;6.06;57.2002;96124.52;;;;
2020/04/07 00:30:11;;;;;;;10.15;7.65;;;;;;;6.06;57.2002;96124.52;;;;
2020/04/07 00:31:12;;;;;;;11.5;7.75;;;;;;;6.03;57.90918;96132.9;;;;
2020/04/07 00:32:12;;;;;;;11.5;7.75;;;;;;;6.03;57.90918;96132.9;;;;
2020/04/07 00:33:18;;;;;;;11.5;7.75;;;;;;;6.03;57.90918;96132.9;;;;
2020/04/07 00:34:23;;;;;;;9.500001;7.5;;;;;;;6.06;58.47754;96131.22;;;;
2020/04/07 00:35:26;;;;;;;9.500001;7.5;;;;;;;6.06;58.47754;96131.22;;;;
2020/04/07 00:36:29;;;;;;;12.45;8;;;;;;;6.07;58.9375;96125.67;;;;
2020/04/07 00:37:30;;;;;;;12.45;8;;;;;;;6.07;58.9375;96125.67;;;;
2020/04/07 00:38:31;;;;;;;12.45;8;;;;;;;6.07;58.9375;96125.67;;;;
2020/04/07 00:39:33;;;;;;;12.45;8;;;;;;;6.07;58.9375;96125.67;;;;
2020/04/07 00:40:34;;;;;;;12.45;8;;;;;;;6.07;58.9375;96125.67;;;;
2020/04/07 00:41:35;;;;;;;12.45;8;;;;;;;6.07;58.9375;96125.67;;;;
2020/04/07 00:42:36;;;;;;;12.45;8;;;;;;;6.07;58.9375;96125.67;;;;
2020/04/07 00:43:37;;;;;;;12.45;8;;;;;;;6.07;58.9375;96125.67;;;;
2020/04/07 00:44:38;;;;;;;12.45;8;;;;;;;6.07;58.9375;96125.67;;;;
2020/04/07 00:45:38;;;;;;;12.45;8;;;;;;;6.07;58.9375;96125.67;;;;
2020/04/07 00:46:40;;;;;;;12.45;8;;;;;;;6.07;58.9375;96125.67;;;;
2020/04/07 00:47:40;;;;;;;9.6;6.849999;;;;;;;5.75;57.64941;96132.31;;;;
2020/04/07 00:48:41;;;;;;;9.6;6.849999;;;;;;;5.75;57.64941;96132.31;;;;
2020/04/07 00:49:42;;;;;;;9.45;7.5;;;;;;;5.73;58.32715;96140.12;;;;
2020/04/07 00:50:48;;;;;;;9.45;7.5;;;;;;;5.73;58.32715;96140.12;;;;
2020/04/07 00:51:49;;;;;;;9.45;7.5;;;;;;;5.73;58.32715;96140.12;;;;
2020/04/07 00:52:52;;;;;;;11.2;8;;;;;;;5.76;58.95801;96137.48;;;;
2020/04/07 00:53:53;;;;;;;11.2;8;;;;;;;5.76;58.95801;96137.48;;;;
2020/04/07 00:54:54;;;;;;;9.75;7.500001;;;;;;;5.79;59.4834;96134.54;;;;
2020/04/07 00:55:54;;;;;;;9.75;7.500001;;;;;;;5.79;59.4834;96134.54;;;;
2020/04/07 00:56:56;;;;;;;9.75;7.500001;;;;;;;5.79;59.4834;96134.54;;;;
2020/04/07 00:57:57;;;;;;;9.75;7.500001;;;;;;;5.79;59.4834;96134.54;;;;
2020/04/07 00:58:58;;;;;;;9.75;7.500001;;;;;;;5.79;59.4834;96134.54;;;;
2020/04/07 00:59:58;;;;;;;9.75;7.500001;;;;;;;5.79;59.4834;96134.54;;;;
2020/04/07 01:00:59;;;;;;;9.75;7.500001;;;;;;;5.79;59.4834;96134.54;;;;
2020/04/07 01:02:27;;;;;;;9.75;7.500001;;;;;;;5.79;59.4834;96134.54;;;;
2020/04/07 01:03:31;;;;;;;9.75;7.500001;;;;;;;5.79;59.4834;96134.54;;;;
2020/04/07 01:04:43;;;;;;;9.75;7.500001;;;;;;;5.79;59.4834;96134.54;;;;
2020/04/07 01:05:44;;;;;;;10.2;7.000001;;;;;;;5.48;58.22949;96139.65;;;;
2020/04/07 01:06:45;;;;;;;10.2;7.000001;;;;;;;5.48;58.22949;96139.65;;;;
2020/04/07 01:07:46;;;;;;;10.2;7.000001;;;;;;;5.48;58.22949;96139.65;;;;
2020/04/07 01:08:47;;;;;;;11.35;8.25;;;;;;;5.47;58.97168;96146.43;;;;
2020/04/07 01:09:48;;;;;;;11.35;8.25;;;;;;;5.47;58.97168;96146.43;;;;
2020/04/07 01:10:52;;;;;;;11.35;8.25;;;;;;;5.47;58.97168;96146.43;;;;
2020/04/07 01:11:56;;;;;;;11.35;8.25;;;;;;;5.47;58.97168;96146.43;;;;
2020/04/07 01:12:57;;;;;;;11.35;8.25;;;;;;;5.47;58.97168;96146.43;;;;
2020/04/07 01:14:05;;;;;;;11.35;8.25;;;;;;;5.47;58.97168;96146.43;;;;
2020/04/07 01:15:09;;;;;;;11.35;8.25;;;;;;;5.47;58.97168;96146.43;;;;
2020/04/07 01:16:21;;;;;;;11.35;8.25;;;;;;;5.47;58.97168;96146.43;;;;
2020/04/07 01:17:24;;;;;;;11.35;8.25;;;;;;;5.47;58.97168;96146.43;;;;
2020/04/07 01:18:34;;;;;;;9.850001;7.749999;;;;;;;5.23;58.20703;96148.85;;;;
2020/04/07 01:19:39;;;;;;;9.850001;7.749999;;;;;;;5.23;58.20703;96148.85;;;;
2020/04/07 01:20:39;;;;;;;9.850001;7.749999;;;;;;;5.23;58.20703;96148.85;;;;
2020/04/07 01:21:40;;;;;;;12.15;8.4;;;;;;;5.23;59.08691;96152.47;;;;
2020/04/07 01:22:44;;;;;;;12.15;8.4;;;;;;;5.23;59.08691;96152.47;;;;
2020/04/07 01:23:45;;;;;;;12.15;8.4;;;;;;;5.23;59.08691;96152.47;;;;
2020/04/07 01:24:45;;;;;;;12.15;8.4;;;;;;;5.23;59.08691;96152.47;;;;
2020/04/07 01:25:47;;;;;;;12.15;8.4;;;;;;;5.23;59.08691;96152.47;;;;
2020/04/07 01:26:50;;;;;;;12.15;8.4;;;;;;;5.23;59.08691;96152.47;;;;
2020/04/07 01:27:51;;;;;;;12.15;8.4;;;;;;;5.23;59.08691;96152.47;;;;
2020/04/07 01:28:52;;;;;;;12.15;8.4;;;;;;;5.23;59.08691;96152.47;;;;
2020/04/07 01:29:55;;;;;;;12.15;8.4;;;;;;;5.23;59.08691;96152.47;;;;
2020/04/07 01:30:56;;;;;;;12.15;8.4;;;;;;;5.23;59.08691;96152.47;;;;
2020/04/07 01:31:59;;;;;;;12.75;8.200001;;;;;;;5.02;58.41211;96163.01;;;;
2020/04/07 01:33:00;;;;;;;12.75;8.200001;;;;;;;5.02;58.41211;96163.01;;;;
2020/04/07 01:34:01;;;;;;;12.75;8.200001;;;;;;;5.02;58.41211;96163.01;;;;
2020/04/07 01:35:03;;;;;;;14.7;10;;;;;;;5.03;59.18652;96161.17;;;;
2020/04/07 01:36:04;;;;;;;14.7;10;;;;;;;5.03;59.18652;96161.17;;;;
2020/04/07 01:37:08;;;;;;;15.95;10.7;;;;;;;5.08;60.02246;96160.96;;;;
2020/04/07 01:38:09;;;;;;;15.95;10.7;;;;;;;5.08;60.02246;96160.96;;;;
2020/04/07 01:39:09;;;;;;;15.95;10.7;;;;;;;5.08;60.02246;96160.96;;;;
2020/04/07 01:40:19;;;;;;;12.65;9.6;;;;;;;5.13;60.7832;96167.02;;;;
2020/04/07 01:41:24;;;;;;;12.65;9.6;;;;;;;5.13;60.7832;96167.02;;;;
2020/04/07 01:42:34;;;;;;;12.65;9.6;;;;;;;5.13;60.7832;96167.02;;;;
2020/04/07 01:43:36;;;;;;;12.65;9.6;;;;;;;5.13;60.7832;96167.02;;;;
2020/04/07 01:44:36;;;;;;;12.65;9.6;;;;;;;5.13;60.7832;96167.02;;;;
2020/04/07 01:45:37;;;;;;;12.65;9.6;;;;;;;5.13;60.7832;96167.02;;;;
2020/04/07 01:46:37;;;;;;;12.65;9.6;;;;;;;5.13;60.7832;96167.02;;;;
2020/04/07 01:47:38;;;;;;;12.65;9.6;;;;;;;5.13;60.7832;96167.02;;;;
2020/04/07 01:48:39;;;;;;;12.65;9.6;;;;;;;5.13;60.7832;96167.02;;;;
2020/04/07 01:49:39;;;;;;;12.65;9.6;;;;;;;5.13;60.7832;96167.02;;;;
2020/04/07 01:50:40;;;;;;;12.25;7.900001;;;;;;;4.89;59.58105;96166.4;;;;
2020/04/07 01:51:40;;;;;;;12.25;7.900001;;;;;;;4.89;59.58105;96166.4;;;;
2020/04/07 01:52:41;;;;;;;12.25;7.900001;;;;;;;4.89;59.58105;96166.4;;;;
2020/04/07 01:53:42;;;;;;;12.45;8.250001;;;;;;;4.88;60.32227;96164.29;;;;
2020/04/07 01:54:42;;;;;;;12.45;8.250001;;;;;;;4.88;60.32227;96164.29;;;;
2020/04/07 01:55:43;;;;;;;10.65;8.25;;;;;;;4.92;61.17676;96172.22;;;;
2020/04/07 01:56:44;;;;;;;10.65;8.25;;;;;;;4.92;61.17676;96172.22;;;;
2020/04/07 01:57:44;;;;;;;10.65;8.25;;;;;;;4.92;61.17676;96172.22;;;;
2020/04/07 01:58:45;;;;;;;10.7;8;;;;;;;4.96;61.87109;96177.55;;;;
2020/04/07 01:59:45;;;;;;;10.7;8;;;;;;;4.96;61.87109;96177.55;;;;
2020/04/07 02:00:46;;;;;;;10.7;8;;;;;;;4.96;61.87109;96177.55;;;;
2020/04/07 02:01:48;;;;;;;10.7;8;;;;;;;4.96;61.87109;96177.55;;;;
2020/04/07 02:02:53;;;;;;;10.7;8;;;;;;;4.96;61.87109;96177.55;;;;
2020/04/07 02:03:57;;;;;;;10.7;8;;;;;;;4.96;61.87109;96177.55;;;;
2020/04/07 02:04:59;;;;;;;10.7;8;;;;;;;4.96;61.87109;96177.55;;;;
2020/04/07 02:06:00;;;;;;;10.7;8;;;;;;;4.96;61.87109;96177.55;;;;
2020/04/07 02:07:00;;;;;;;10.7;8;;;;;;;4.96;61.87109;96177.55;;;;
2020/04/07 02:08:01;;;;;;;10.7;8;;;;;;;4.96;61.87109;96177.55;;;;
2020/04/07 02:09:02;;;;;;;9.150001;7;;;;;;;4.7;60.59375;96175.31;;;;
2020/04/07 02:10:09;;;;;;;9.150001;7;;;;;;;4.7;60.59375;96175.31;;;;
2020/04/07 02:11:11;;;;;;;9.150001;7;;;;;;;4.7;60.59375;96175.31;;;;
2020/04/07 02:12:11;;;;;;;10.15;7.75;;;;;;;4.71;61.48633;96179.13;;;;
2020/04/07 02:13:15;;;;;;;10.15;7.75;;;;;;;4.71;61.48633;96179.13;;;;
2020/04/07 02:14:19;;;;;;;10.15;7.75;;;;;;;4.71;61.48633;96179.13;;;;
2020/04/07 02:15:19;;;;;;;10.15;7.75;;;;;;;4.71;61.48633;96179.13;;;;
2020/04/07 02:16:23;;;;;;;10.15;7.75;;;;;;;4.71;61.48633;96179.13;;;;
2020/04/07 02:17:26;;;;;;;10.15;7.75;;;;;;;4.71;61.48633;96179.13;;;;
2020/04/07 02:18:26;;;;;;;10.15;7.75;;;;;;;4.71;61.48633;96179.13;;;;
2020/04/07 02:19:27;;;;;;;10.15;7.75;;;;;;;4.71;61.48633;96179.13;;;;
2020/04/07 02:20:28;;;;;;;10.15;7.75;;;;;;;4.71;61.48633;96179.13;;;;
2020/04/07 02:21:29;;;;;;;10.15;7.75;;;;;;;4.71;61.48633;96179.13;;;;
2020/04/07 02:22:31;;;;;;;10.55;7.4;;;;;;;4.54;60.67676;96179;;;;
2020/04/07 02:23:31;;;;;;;10.55;7.4;;;;;;;4.54;60.67676;96179;;;;
2020/04/07 02:24:32;;;;;;;10.55;7.4;;;;;;;4.54;60.67676;96179;;;;
2020/04/07 02:25:33;;;;;;;10.15;7.299999;;;;;;;4.55;61.37793;96183.78;;;;
2020/04/07 02:26:34;;;;;;;10.15;7.299999;;;;;;;4.55;61.37793;96183.78;;;;
2020/04/07 02:27:34;;;;;;;10.15;7.299999;;;;;;;4.55;61.37793;96183.78;;;;
2020/04/07 02:28:34;;;;;;;10.15;7.299999;;;;;;;4.55;61.37793;96183.78;;;;
2020/04/07 02:29:35;;;;;;;10.15;7.299999;;;;;;;4.55;61.37793;96183.78;;;;
2020/04/07 02:30:36;;;;;;;10.15;7.299999;;;;;;;4.55;61.37793;96183.78;;;;
2020/04/07 02:31:37;;;;;;;10.15;7.299999;;;;;;;4.55;61.37793;96183.78;;;;
2020/04/07 02:32:37;;;;;;;10.15;7.299999;;;;;;;4.55;61.37793;96183.78;;;;
2020/04/07 02:33:38;;;;;;;10.15;7.299999;;;;;;;4.55;61.37793;96183.78;;;;
2020/04/07 02:34:38;;;;;;;10.15;7.299999;;;;;;;4.55;61.37793;96183.78;;;;
2020/04/07 02:35:39;;;;;;;10;7.099999;;;;;;;4.42;60.72461;96197.74;;;;
2020/04/07 02:36:39;;;;;;;10;7.099999;;;;;;;4.42;60.72461;96197.74;;;;
2020/04/07 02:37:40;;;;;;;10;7.099999;;;;;;;4.42;60.72461;96197.74;;;;
2020/04/07 02:38:41;;;;;;;11.65;7.2;;;;;;;4.44;61.61719;96199.69;;;;
2020/04/07 02:39:41;;;;;;;11.65;7.2;;;;;;;4.44;61.61719;96199.69;;;;
2020/04/07 02:40:41;;;;;;;11.65;7.2;;;;;;;4.44;61.61719;96199.69;;;;
2020/04/07 02:41:44;;;;;;;11.65;7.2;;;;;;;4.44;61.61719;96199.69;;;;
2020/04/07 02:42:45;;;;;;;11.65;7.2;;;;;;;4.44;61.61719;96199.69;;;;
2020/04/07 02:43:46;;;;;;;11.65;7.2;;;;;;;4.44;61.61719;96199.69;;;;
2020/04/07 02:44:46;;;;;;;11.65;7.2;;;;;;;4.44;61.61719;96199.69;;;;
2020/04/07 02:45:47;;;;;;;11.65;7.2;;;;;;;4.44;61.61719;96199.69;;;;
2020/04/07 02:46:48;;;;;;;11.65;7.2;;;;;;;4.44;61.61719;96199.69;;;;
2020/04/07 02:47:49;;;;;;;11.65;7.2;;;;;;;4.44;61.61719;96199.69;;;;
2020/04/07 02:48:49;;;;;;;11.15;6.85;;;;;;;4.34;60.93555;96211.21;;;;
2020/04/07 02:49:50;;;;;;;11.15;6.85;;;;;;;4.34;60.93555;96211.21;;;;
2020/04/07 02:50:50;;;;;;;11.15;6.85;;;;;;;4.34;60.93555;96211.21;;;;
2020/04/07 02:51:51;;;;;;;8.749998;7.149999;;;;;;;4.36;61.78613;96214.46;;;;
2020/04/07 02:52:52;;;;;;;8.749998;7.149999;;;;;;;4.36;61.78613;96214.46;;;;
2020/04/07 02:53:52;;;;;;;8.749998;7.149999;;;;;;;4.36;61.78613;96214.46;;;;
2020/04/07 02:54:53;;;;;;;8.749998;7.149999;;;;;;;4.36;61.78613;96214.46;;;;
2020/04/07 02:55:53;;;;;;;8.749998;7.149999;;;;;;;4.36;61.78613;96214.46;;;;
2020/04/07 02:56:54;;;;;;;8.749998;7.149999;;;;;;;4.36;61.78613;96214.46;;;;
2020/04/07 02:57:54;;;;;;;8.749998;7.149999;;;;;;;4.36;61.78613;96214.46;;;;
2020/04/07 02:58:55;;;;;;;8.749998;7.149999;;;;;;;4.36;61.78613;96214.46;;;;
2020/04/07 02:59:55;;;;;;;8.749998;7.149999;;;;;;;4.36;61.78613;96214.46;;;;
2020/04/07 03:01:01;;;;;;;8.749998;7.149999;;;;;;;4.36;61.78613;96214.46;;;;
2020/04/07 03:02:06;;;;;;;10.65;6.8;;;;;;;4.27;61.14844;96211.99;;;;
2020/04/07 03:03:07;;;;;;;10.65;6.8;;;;;;;4.27;61.14844;96211.99;;;;
2020/04/07 03:04:11;;;;;;;10.65;6.8;;;;;;;4.27;61.14844;96211.99;;;;
2020/04/07 03:05:14;;;;;;;10.3;7.55;;;;;;;4.29;61.90234;96216.66;;;;
2020/04/07 03:07:22;;;;;;;10.3;7.55;;;;;;;4.29;61.90234;96216.66;;;;
2020/04/07 03:08:23;;;;;;;10.3;7.55;;;;;;;4.29;61.90234;96216.66;;;;
2020/04/07 03:09:24;;;;;;;10.3;7.55;;;;;;;4.29;61.90234;96216.66;;;;
2020/04/07 03:10:29;;;;;;;10.3;7.55;;;;;;;4.29;61.90234;96216.66;;;;
2020/04/07 03:11:32;;;;;;;10.3;7.55;;;;;;;4.29;61.90234;96216.66;;;;
2020/04/07 03:12:36;;;;;;;10.3;7.55;;;;;;;4.29;61.90234;96216.66;;;;
2020/04/07 03:13:43;;;;;;;10.3;7.55;;;;;;;4.29;61.90234;96216.66;;;;
2020/04/07 03:14:50;;;;;;;10.3;7.55;;;;;;;4.29;61.90234;96216.66;;;;
2020/04/07 03:15:56;;;;;;;10.2;6.450001;;;;;;;4.22;61.32129;96223.22;;;;
2020/04/07 03:17:33;;;;;;;10.2;6.450001;;;;;;;4.22;61.32129;96223.22;;;;
2020/04/07 03:18:39;;;;;;;10.25;7.25;;;;;;;4.26;62.20508;96224.55;;;;
2020/04/07 03:19:44;;;;;;;10.25;7.25;;;;;;;4.26;62.20508;96224.55;;;;
2020/04/07 03:20:50;;;;;;;10.25;7.25;;;;;;;4.26;62.20508;96224.55;;;;
2020/04/07 03:21:54;;;;;;;10.25;7.25;;;;;;;4.26;62.20508;96224.55;;;;
2020/04/07 03:22:55;;;;;;;10.25;7.25;;;;;;;4.26;62.20508;96224.55;;;;
2020/04/07 03:23:56;;;;;;;10.25;7.25;;;;;;;4.26;62.20508;96224.55;;;;
2020/04/07 03:24:56;;;;;;;10.25;7.25;;;;;;;4.26;62.20508;96224.55;;;;
2020/04/07 03:25:57;;;;;;;10.25;7.25;;;;;;;4.26;62.20508;96224.55;;;;
2020/04/07 03:26:57;;;;;;;10.25;7.25;;;;;;;4.26;62.20508;96224.55;;;;
2020/04/07 03:27:58;;;;;;;10.25;7.25;;;;;;;4.26;62.20508;96224.55;;;;
2020/04/07 03:28:58;;;;;;;9.6;6.950001;;;;;;;4.21;61.61621;96219.28;;;;
2020/04/07 03:29:59;;;;;;;9.6;6.950001;;;;;;;4.21;61.61621;96219.28;;;;
2020/04/07 03:30:59;;;;;;;9;7.050001;;;;;;;4.25;62.57422;96221.11;;;;
2020/04/07 03:32:00;;;;;;;9;7.050001;;;;;;;4.25;62.57422;96221.11;;;;
2020/04/07 03:33:00;;;;;;;9;7.050001;;;;;;;4.25;62.57422;96221.11;;;;
2020/04/07 03:34:01;;;;;;;9;7.050001;;;;;;;4.25;62.57422;96221.11;;;;
2020/04/07 03:35:01;;;;;;;9;7.050001;;;;;;;4.25;62.57422;96221.11;;;;
2020/04/07 03:36:03;;;;;;;9;7.050001;;;;;;;4.25;62.57422;96221.11;;;;
2020/04/07 03:37:04;;;;;;;9;7.050001;;;;;;;4.25;62.57422;96221.11;;;;
2020/04/07 03:38:04;;;;;;;9;7.050001;;;;;;;4.25;62.57422;96221.11;;;;
2020/04/07 03:39:04;;;;;;;9;7.050001;;;;;;;4.25;62.57422;96221.11;;;;
2020/04/07 03:42:05;;;;;;;8.599999;6.399999;;;;;;;4.23;61.95703;96227.97;;;;
2020/04/07 03:43:06;;;;;;;8.599999;6.399999;;;;;;;4.23;61.95703;96227.97;;;;
2020/04/07 03:44:06;;;;;;;10.85;7.5;;;;;;;4.28;62.93652;96228.38;;;;
2020/04/07 03:45:07;;;;;;;10.85;7.5;;;;;;;4.28;62.93652;96228.38;;;;
2020/04/07 03:46:09;;;;;;;10.85;7.5;;;;;;;4.28;62.93652;96228.38;;;;
2020/04/07 03:47:09;;;;;;;10.85;7.5;;;;;;;4.28;62.93652;96228.38;;;;
2020/04/07 03:48:10;;;;;;;10.85;7.5;;;;;;;4.28;62.93652;96228.38;;;;
2020/04/07 03:49:10;;;;;;;10.85;7.5;;;;;;;4.28;62.93652;96228.38;;;;
2020/04/07 03:50:11;;;;;;;10.85;7.5;;;;;;;4.28;62.93652;96228.38;;;;
2020/04/07 03:51:12;;;;;;;10.85;7.5;;;;;;;4.28;62.93652;96228.38;;;;
2020/04/07 03:52:27;;;;;;;10.85;7.5;;;;;;;4.28;62.93652;96228.38;;;;
2020/04/07 03:54:09;;;;;;;10.85;7.5;;;;;;;4.28;62.93652;96228.38;;;;
2020/04/07 03:55:10;;;;;;;9.700001;6.95;;;;;;;4.28;62.29102;96231.05;;;;
2020/04/07 03:56:11;;;;;;;9.700001;6.95;;;;;;;4.28;62.29102;96231.05;;;;
2020/04/07 03:57:11;;;;;;;9.700001;6.95;;;;;;;4.28;62.29102;96231.05;;;;
2020/04/07 03:58:12;;;;;;;9.050001;7.500001;;;;;;;4.33;63.32422;96233.61;;;;
2020/04/07 03:59:13;;;;;;;9.050001;7.500001;;;;;;;4.33;63.32422;96233.61;;;;
2020/04/07 04:00:14;;;;;;;9.050001;7.500001;;;;;;;4.33;63.32422;96233.61;;;;
2020/04/07 04:01:15;;;;;;;9.050001;7.500001;;;;;;;4.33;63.32422;96233.61;;;;
2020/04/07 04:02:15;;;;;;;9.050001;7.500001;;;;;;;4.33;63.32422;96233.61;;;;
2020/04/07 04:03:16;;;;;;;9.050001;7.500001;;;;;;;4.33;63.32422;96233.61;;;;
2020/04/07 04:04:16;;;;;;;9.050001;7.500001;;;;;;;4.33;63.32422;96233.61;;;;
2020/04/07 04:05:17;;;;;;;9.050001;7.500001;;;;;;;4.33;63.32422;96233.61;;;;
2020/04/07 04:06:18;;;;;;;9.050001;7.500001;;;;;;;4.33;63.32422;96233.61;;;;
2020/04/07 04:07:18;;;;;;;9.050001;7.500001;;;;;;;4.33;63.32422;96233.61;;;;
2020/04/07 04:08:19;;;;;;;8.6;7.05;;;;;;;4.28;62.59961;96233.2;;;;
2020/04/07 04:09:19;;;;;;;8.6;7.05;;;;;;;4.28;62.59961;96233.2;;;;
2020/04/07 04:10:20;;;;;;;8.6;7.05;;;;;;;4.28;62.59961;96233.2;;;;
2020/04/07 04:11:20;;;;;;;9.1;7;;;;;;;4.32;63.6416;96236.77;;;;
2020/04/07 04:12:21;;;;;;;9.1;7;;;;;;;4.32;63.6416;96236.77;;;;
2020/04/07 04:13:22;;;;;;;9.1;7;;;;;;;4.32;63.6416;96236.77;;;;
2020/04/07 04:14:22;;;;;;;9.1;7;;;;;;;4.32;63.6416;96236.77;;;;
2020/04/07 04:15:23;;;;;;;9.1;7;;;;;;;4.32;63.6416;96236.77;;;;
2020/04/07 04:16:23;;;;;;;9.1;7;;;;;;;4.32;63.6416;96236.77;;;;
2020/04/07 04:17:23;;;;;;;9.1;7;;;;;;;4.32;63.6416;96236.77;;;;
2020/04/07 04:18:25;;;;;;;9.1;7;;;;;;;4.32;63.6416;96236.77;;;;
2020/04/07 04:19:25;;;;;;;9.1;7;;;;;;;4.32;63.6416;96236.77;;;;
2020/04/07 04:20:26;;;;;;;9.1;7;;;;;;;4.32;63.6416;96236.77;;;;
2020/04/07 04:21:26;;;;;;;9.6;6.949999;;;;;;;4.28;63.01074;96248.42;;;;
2020/04/07 04:22:27;;;;;;;9.6;6.949999;;;;;;;4.28;63.01074;96248.42;;;;
2020/04/07 04:23:27;;;;;;;9.6;6.949999;;;;;;;4.28;63.01074;96248.42;;;;
2020/04/07 04:24:28;;;;;;;9.6;6.949999;;;;;;;4.28;63.01074;96248.42;;;;
2020/04/07 04:25:28;;;;;;;9.6;6.949999;;;;;;;4.28;63.01074;96248.42;;;;
2020/04/07 04:26:29;;;;;;;9.6;6.949999;;;;;;;4.28;63.01074;96248.42;;;;
2020/04/07 04:27:29;;;;;;;9.6;6.949999;;;;;;;4.28;63.01074;96248.42;;;;
2020/04/07 04:28:29;;;;;;;9.6;6.949999;;;;;;;4.28;63.01074;96248.42;;;;
2020/04/07 04:29:30;;;;;;;9.6;6.949999;;;;;;;4.28;63.01074;96248.42;;;;
2020/04/07 04:30:30;;;;;;;9.6;6.949999;;;;;;;4.28;63.01074;96248.42;;;;
2020/04/07 04:31:31;;;;;;;9.6;6.949999;;;;;;;4.28;63.01074;96248.42;;;;
2020/04/07 04:32:31;;;;;;;9.65;7.25;;;;;;;4.25;62.6377;96254.1;;;;
2020/04/07 04:33:32;;;;;;;9.65;7.25;;;;;;;4.25;62.6377;96254.1;;;;
2020/04/07 04:34:32;;;;;;;9.65;7.25;;;;;;;4.25;62.6377;96254.1;;;;
2020/04/07 04:35:33;;;;;;;9.65;7.25;;;;;;;4.25;62.6377;96254.1;;;;
2020/04/07 04:36:33;;;;;;;9.65;7.25;;;;;;;4.25;62.6377;96254.1;;;;
2020/04/07 04:37:34;;;;;;;9.65;7.25;;;;;;;4.25;62.6377;96254.1;;;;
2020/04/07 04:38:35;;;;;;;9.65;7.25;;;;;;;4.25;62.6377;96254.1;;;;
2020/04/07 04:39:35;;;;;;;9.65;7.25;;;;;;;4.25;62.6377;96254.1;;;;
2020/04/07 04:40:36;;;;;;;9.65;7.25;;;;;;;4.25;62.6377;96254.1;;;;
2020/04/07 04:41:36;;;;;;;9.65;7.25;;;;;;;4.25;62.6377;96254.1;;;;
2020/04/07 04:42:37;;;;;;;10.2;7;;;;;;;4.16;62.43359;96266.66;;;;
2020/04/07 04:43:39;;;;;;;10.2;7;;;;;;;4.16;62.43359;96266.66;;;;
2020/04/07 04:44:39;;;;;;;10.2;7;;;;;;;4.16;62.43359;96266.66;;;;
2020/04/07 04:45:40;;;;;;;12;8.1;;;;;;;4.21;63.57227;96274.57;;;;
2020/04/07 04:46:40;;;;;;;12;8.1;;;;;;;4.21;63.57227;96274.57;;;;
2020/04/07 04:47:41;;;;;;;12;8.1;;;;;;;4.21;63.57227;96274.57;;;;
2020/04/07 04:48:41;;;;;;;12;8.1;;;;;;;4.21;63.57227;96274.57;;;;
2020/04/07 04:49:42;;;;;;;12;8.1;;;;;;;4.21;63.57227;96274.57;;;;
2020/04/07 04:50:42;;;;;;;12;8.1;;;;;;;4.21;63.57227;96274.57;;;;
2020/04/07 04:51:42;;;;;;;12;8.1;;;;;;;4.21;63.57227;96274.57;;;;
2020/04/07 04:52:43;;;;;;;12;8.1;;;;;;;4.21;63.57227;96274.57;;;;
2020/04/07 04:53:43;;;;;;;12;8.1;;;;;;;4.21;63.57227;96274.57;;;;
2020/04/07 04:54:44;;;;;;;12;8.1;;;;;;;4.21;63.57227;96274.57;;;;
2020/04/07 04:55:44;;;;;;;10.45;7.45;;;;;;;4.19;63.04004;96279.28;;;;
2020/04/07 04:56:45;;;;;;;10.45;7.45;;;;;;;4.19;63.04004;96279.28;;;;
2020/04/07 04:57:46;;;;;;;10.45;7.45;;;;;;;4.19;63.04004;96279.28;;;;
2020/04/07 04:58:47;;;;;;;10.45;7.45;;;;;;;4.19;63.04004;96279.28;;;;
2020/04/07 04:59:52;;;;;;;10.45;7.45;;;;;;;4.19;63.04004;96279.28;;;;
2020/04/07 05:06:10;;;;;;;11.3;7.7;;;;;;;4.26;62.80664;96289.18;;;;
2020/04/07 05:07:11;;;;;;;11.3;7.7;;;;;;;4.26;62.80664;96289.18;;;;
2020/04/07 05:08:18;;;;;;;11.3;7.7;;;;;;;4.26;62.80664;96289.18;;;;
2020/04/07 05:09:24;;;;;;;11.3;7.7;;;;;;;4.26;62.80664;96289.18;;;;
2020/04/07 05:10:32;;;;;;;11.3;7.7;;;;;;;4.26;62.80664;96289.18;;;;
2020/04/07 05:11:40;;;;;;;11.3;7.7;;;;;;;4.26;62.80664;96289.18;;;;
2020/04/07 05:12:46;;;;;;;11.3;7.7;;;;;;;4.26;62.80664;96289.18;;;;
2020/04/07 05:13:51;;;;;;;11.3;7.7;;;;;;;4.26;62.80664;96289.18;;;;
2020/04/07 05:15:33;;;;;;;11.3;7.7;;;;;;;4.26;62.80664;96289.18;;;;
2020/04/07 05:16:42;;;;;;;11.3;7.7;;;;;;;4.26;62.80664;96289.18;;;;
2020/04/07 05:17:51;;;;;;;9.45;7.65;;;;;;;4.31;62.51855;96288.17;;;;
2020/04/07 05:19:05;;;;;;;9.45;7.65;;;;;;;4.31;62.51855;96288.17;;;;
2020/04/07 05:20:14;;;;;;;10.4;8.150002;;;;;;;4.4;63.67383;96293.39;;;;
2020/04/07 05:26:14;;;;;;;10.4;8.150002;;;;;;;4.4;63.67383;96293.39;;;;
2020/04/07 05:27:14;;;;;;;10.4;8.150002;;;;;;;4.4;63.67383;96293.39;;;;
2020/04/07 05:28:15;;;;;;;10.4;8.150002;;;;;;;4.4;63.67383;96293.39;;;;
2020/04/07 05:29:15;;;;;;;10.4;8.150002;;;;;;;4.4;63.67383;96293.39;;;;
2020/04/07 05:30:16;;;;;;;9.600001;7.75;;;;;;;4.6;62.98438;96301.25;;;;
2020/04/07 05:31:16;;;;;;;9.600001;7.75;;;;;;;4.6;62.98438;96301.25;;;;
2020/04/07 05:32:17;;;;;;;9.600001;7.75;;;;;;;4.6;62.98438;96301.25;;;;
2020/04/07 05:33:17;;;;;;;11.5;7.900001;;;;;;;4.73;64.13574;96302.03;;;;
2020/04/07 05:34:18;;;;;;;11.5;7.900001;;;;;;;4.73;64.13574;96302.03;;;;
2020/04/07 05:35:19;;;;;;;11.5;7.900001;;;;;;;4.73;64.13574;96302.03;;;;
2020/04/07 05:36:19;;;;;;;11.5;7.900001;;;;;;;4.73;64.13574;96302.03;;;;
2020/04/07 05:37:20;;;;;;;11.5;7.900001;;;;;;;4.73;64.13574;96302.03;;;;
2020/04/07 05:38:21;;;;;;;11.5;7.900001;;;;;;;4.73;64.13574;96302.03;;;;
2020/04/07 05:39:21;;;;;;;11.5;7.900001;;;;;;;4.73;64.13574;96302.03;;;;
2020/04/07 05:40:22;;;;;;;11.5;7.900001;;;;;;;4.73;64.13574;96302.03;;;;
2020/04/07 05:41:22;;;;;;;11.5;7.900001;;;;;;;4.73;64.13574;96302.03;;;;
2020/04/07 05:42:23;;;;;;;11.5;7.900001;;;;;;;4.73;64.13574;96302.03;;;;
2020/04/07 05:43:23;;;;;;;9.65;7.349999;;;;;;;5.09;63.19336;96317.03;;;;
2020/04/07 05:44:23;;;;;;;9.65;7.349999;;;;;;;5.09;63.19336;96317.03;;;;
2020/04/07 05:45:24;;;;;;;9.65;7.349999;;;;;;;5.09;63.19336;96317.03;;;;
2020/04/07 05:46:24;;;;;;;10.45;8.000001;;;;;;;5.26;64.21484;96318.58;;;;
2020/04/07 05:47:25;;;;;;;10.45;8.000001;;;;;;;5.26;64.21484;96318.58;;;;
2020/04/07 05:48:25;;;;;;;10.45;8.000001;;;;;;;5.26;64.21484;96318.58;;;;
2020/04/07 05:49:26;;;;;;;10.45;8.000001;;;;;;;5.26;64.21484;96318.58;;;;
2020/04/07 05:50:26;;;;;;;10.45;8.000001;;;;;;;5.26;64.21484;96318.58;;;;
2020/04/07 05:51:27;;;;;;;10.45;8.000001;;;;;;;5.26;64.21484;96318.58;;;;
2020/04/07 05:52:27;;;;;;;10.45;8.000001;;;;;;;5.26;64.21484;96318.58;;;;
2020/04/07 05:53:40;;;;;;;10.45;8.000001;;;;;;;5.26;64.21484;96318.58;;;;
2020/04/07 05:54:49;;;;;;;10.45;8.000001;;;;;;;5.26;64.21484;96318.58;;;;
2020/04/07 05:55:54;;;;;;;10.45;8.000001;;;;;;;5.26;64.21484;96318.58;;;;
2020/04/07 05:56:55;;;;;;;10.05;7.7;;;;;;;5.8;62.94727;96326.36;;;;
2020/04/07 05:57:56;;;;;;;10.05;7.7;;;;;;;5.8;62.94727;96326.36;;;;
2020/04/07 05:59:11;;;;;;;10.05;7.7;;;;;;;5.8;62.94727;96326.36;;;;
2020/04/07 06:00:12;;;;;;;12.35;7.8;;;;;;;6;63.85938;96337.43;;;;
2020/04/07 06:01:13;;;;;;;12.35;7.8;;;;;;;6;63.85938;96337.43;;;;
2020/04/07 06:02:14;;;;;;;12.35;7.8;;;;;;;6;63.85938;96337.43;;;;
2020/04/07 06:03:15;;;;;;;12.35;7.8;;;;;;;6;63.85938;96337.43;;;;